Nearby METAR Reports

 

KNTU - NAS Oceana, Virginia Beach, Virginia, USA
Distance from station: N 3.2mi, 5.1km
Updated: Wed, 20-Oct-2021 4:56am EDT
Mostly cloudy
Mostly cloudy
 Wind from WSW
Wind: WSW 5 mph , 7 km/h
Temperature: 54°F , 12°C
Dew Point: 45°F , 7°C
Humidity: 72%
Barometer: 30.15 inHg , 1021 hPa
Clouds: Mostly cloudy
Visibility: 10 miles , 16 km
Cloud details: Mostly cloudy 30000 ft
2021/10/20 08:56 KNTU 200856Z 24004KT 10SM BKN300 12/07 A3015 RMK AO2 SLP211 T01220067 53006
KNFE - Fentress NALF, Virginia Beach Virginia, USA
Distance from station: SW 7.6mi, 12.2km
Updated: Wed, 20-Oct-2021 4:56am EDT
Clear
Clear
 Wind from calm
Wind: Calm
Temperature: 54°F , 12°C
Dew Point: 45°F , 7°C
Humidity: 72%
Barometer: 30.16 inHg , 1021.3 hPa
Clouds: Clear
Visibility: 10 miles , 16 km
2021/10/20 08:56 KNFE 200856Z AUTO 00000KT 10SM CLR 12/07 A3016 RMK AO2 SLP216 T01220067 53006
 
KORF - Norfolk International, Norfolk, Virginia, USA
Distance from station: NW 12.2mi, 19.6km
Updated: Wed, 20-Oct-2021 4:51am EDT
Clear
Clear
 Wind from WSW
Wind: WSW 3 mph , 6 km/h
Temperature: 52°F , 11°C
Dew Point: 46°F , 8°C
Humidity: 82%
Barometer: 30.15 inHg , 1021 hPa
Clouds: Clear
Visibility: 10 miles , 16 km
2021/10/20 08:51 KORF 200851Z 24003KT 10SM CLR 11/08 A3015 RMK AO2 SLP210 T01060078 53005
KCPK - Cheasapeak Municipal, Cheasapeak, Virginia, USA
Distance from station: SW 17.2mi, 27.7km
Updated: Wed, 20-Oct-2021 5:15am EDT
Clear
Clear
 Wind from calm
Wind: Calm
Temperature: 45°F , 7°C
Dew Point: 45°F , 7°C
Humidity: 100%
Barometer: 30.18 inHg , 1022 hPa
Clouds: Clear
Visibility: 7 miles , 11 km
2021/10/20 09:15 KCPK 200915Z AUTO 00000KT 7SM CLR 07/07 A3018 RMK AO2 T00710065
 
KNGU - NAS Norfolk, Norfolk, Virginia, USA
Distance from station: NW 17.7mi, 28.5km
Updated: Wed, 20-Oct-2021 4:59am EDT
Mostly cloudy
Mostly cloudy
 Wind from W
Wind: W 8 mph , 13 km/h
Temperature: 59°F , 15°C
Dew Point: 46°F , 8°C
Humidity: 63%
Barometer: 30.17 inHg , 1021.7 hPa
Clouds: Mostly cloudy
Visibility: 10 miles , 16 km
Cloud details: Mostly cloudy 30000 ft
2021/10/20 08:59 KNGU 200859Z 26007KT 10SM BKN300 15/08 A3017 RMK AO2 SLP217 T01500083 53007 $